createdAt,value
2019-04-29T00:00:59.851Z,4.34
2019-04-29T00:01:59.822Z,4.46
2019-04-29T00:02:59.815Z,4.46
2019-04-29T00:03:59.798Z,4.58
2019-04-29T00:04:59.790Z,4.55
2019-04-29T00:05:59.824Z,4.44
2019-04-29T00:06:59.767Z,4.34
2019-04-29T00:07:59.752Z,4.28
2019-04-29T00:08:59.746Z,4.32
2019-04-29T00:09:59.730Z,4.33
2019-04-29T00:10:59.718Z,4.34
2019-04-29T00:11:59.751Z,4.24
2019-04-29T00:12:59.702Z,4.22
2019-04-29T00:13:59.683Z,4.19
2019-04-29T00:14:59.685Z,4.14
2019-04-29T00:15:59.662Z,4.26
2019-04-29T00:16:59.697Z,4.22
2019-04-29T00:17:59.679Z,4.37
2019-04-29T00:18:59.704Z,4.39
2019-04-29T00:19:59.622Z,4.42
2019-04-29T00:20:59.605Z,4.29
2019-04-29T00:21:59.605Z,4.34
2019-04-29T00:22:59.608Z,4.39
2019-04-29T00:24:03.891Z,4.37
2019-04-29T00:24:59.554Z,4.32
2019-04-29T00:25:59.546Z,4.22
2019-04-29T00:26:59.586Z,4.12
2019-04-29T00:27:59.525Z,4.06
2019-04-29T00:28:59.509Z,4.10
2019-04-29T00:29:59.521Z,4.07
2019-04-29T00:30:59.534Z,4.03
2019-04-29T00:31:59.525Z,4.07
2019-04-29T00:32:59.462Z,4.06
2019-04-29T00:33:59.459Z,3.94
2019-04-29T00:34:59.439Z,3.90
2019-04-29T00:35:59.435Z,3.98
2019-04-29T00:36:59.415Z,3.98
2019-04-29T00:37:59.447Z,4.03
2019-04-29T00:38:59.394Z,4.07
2019-04-29T00:39:59.426Z,3.98
2019-04-29T00:40:59.372Z,3.97
2019-04-29T00:41:59.379Z,3.85
2019-04-29T00:42:59.346Z,3.82
2019-04-29T00:43:59.378Z,3.80
2019-04-29T00:44:59.330Z,3.82
2019-04-29T00:45:59.315Z,3.85
2019-04-29T00:46:59.299Z,3.89
2019-04-29T00:47:59.288Z,4.00
2019-04-29T00:48:59.489Z,4.07
2019-04-29T00:49:59.267Z,4.14
2019-04-29T00:50:59.255Z,4.15
2019-04-29T00:51:59.246Z,4.04
2019-04-29T00:52:59.237Z,3.98
2019-04-29T00:53:59.231Z,3.97
2019-04-29T00:54:59.311Z,3.92
2019-04-29T00:55:59.196Z,3.90
2019-04-29T00:56:59.185Z,3.83
2019-04-29T00:57:59.175Z,3.75
2019-04-29T00:58:59.162Z,3.76
2019-04-29T00:59:59.164Z,3.75
2019-04-29T01:00:59.352Z,3.78
2019-04-29T01:01:59.131Z,3.83
2019-04-29T01:02:59.119Z,3.88
2019-04-29T01:03:59.104Z,3.94
2019-04-29T01:04:59.095Z,3.90
2019-04-29T01:05:59.082Z,3.92
2019-04-29T01:06:59.141Z,3.92
2019-04-29T01:07:59.064Z,3.89
2019-04-29T01:08:59.047Z,3.88
2019-04-29T01:09:59.039Z,3.98
2019-04-29T01:10:59.023Z,4.01
2019-04-29T01:11:59.012Z,3.96
2019-04-29T01:12:59.088Z,3.85
2019-04-29T01:13:58.988Z,3.85
2019-04-29T01:14:58.977Z,3.78
2019-04-29T01:15:58.969Z,3.71
2019-04-29T01:16:58.954Z,3.75
2019-04-29T01:17:58.960Z,3.65
2019-04-29T01:18:59.003Z,3.71
2019-04-29T01:19:58.921Z,3.86
2019-04-29T01:20:58.925Z,3.85
2019-04-29T01:21:58.911Z,3.83
2019-04-29T01:22:58.893Z,3.86
2019-04-29T01:23:58.876Z,3.90
2019-04-29T01:24:58.941Z,4.00
2019-04-29T01:25:58.854Z,3.97
2019-04-29T01:26:58.862Z,3.97
2019-04-29T01:27:58.850Z,4.07
2019-04-29T01:28:58.833Z,4.07
2019-04-29T01:29:58.806Z,4.21
2019-04-29T01:30:59.007Z,4.22
2019-04-29T01:31:58.782Z,4.28
2019-04-29T01:32:58.773Z,4.28
2019-04-29T01:33:58.764Z,4.33
2019-04-29T01:34:58.750Z,4.29
2019-04-29T01:35:58.738Z,4.37
2019-04-29T01:36:58.937Z,4.32
2019-04-29T01:37:58.715Z,4.50
2019-04-29T01:38:58.707Z,4.34
2019-04-29T01:39:58.722Z,4.29
2019-04-29T01:40:58.694Z,4.36
2019-04-29T01:41:58.671Z,4.33
2019-04-29T01:42:58.727Z,4.22
2019-04-29T01:43:58.649Z,4.32
2019-04-29T01:44:58.637Z,4.32
2019-04-29T01:45:58.633Z,4.46
2019-04-29T01:46:58.628Z,4.42
2019-04-29T01:47:58.605Z,4.40
2019-04-29T01:48:58.671Z,4.44
2019-04-29T01:49:58.581Z,4.33
2019-04-29T01:50:58.582Z,4.29
2019-04-29T01:51:58.559Z,4.29
2019-04-29T01:52:58.549Z,4.28
2019-04-29T01:53:58.557Z,4.33
2019-04-29T01:54:58.604Z,4.21
2019-04-29T01:55:58.522Z,4.21
2019-04-29T01:56:58.504Z,4.22
2019-04-29T01:57:58.507Z,4.24
2019-04-29T01:58:58.478Z,4.24
2019-04-29T01:59:58.467Z,4.16
2019-04-29T02:00:58.521Z,4.16
2019-04-29T02:01:58.444Z,4.14
2019-04-29T02:02:58.434Z,4.18
2019-04-29T02:03:58.425Z,4.15
2019-04-29T02:04:58.408Z,4.15
2019-04-29T02:05:58.397Z,4.28
2019-04-29T02:06:58.464Z,4.34
2019-04-29T02:07:58.380Z,4.36
2019-04-29T02:08:58.383Z,4.28
2019-04-29T02:09:58.374Z,4.40
2019-04-29T02:10:58.377Z,4.43
2019-04-29T02:11:58.343Z,4.62
2019-04-29T02:12:58.388Z,4.59
2019-04-29T02:13:58.318Z,4.65
2019-04-29T02:15:01.022Z,4.65
2019-04-29T02:15:58.952Z,4.67
2019-04-29T02:16:58.279Z,4.75
2019-04-29T02:17:58.281Z,4.76
2019-04-29T02:18:58.320Z,4.83
2019-04-29T02:19:58.260Z,4.75
2019-04-29T02:20:58.225Z,4.73
2019-04-29T02:21:58.215Z,4.72
2019-04-29T02:22:58.212Z,4.73
2019-04-29T02:23:58.209Z,4.64
2019-04-29T02:24:58.262Z,4.67
2019-04-29T02:25:58.171Z,4.67
2019-04-29T02:26:58.158Z,4.61
2019-04-29T02:27:58.157Z,4.64
2019-04-29T02:28:58.134Z,4.59
2019-04-29T02:29:58.134Z,4.55
2019-04-29T02:30:58.184Z,4.59
2019-04-29T02:31:58.100Z,4.58
2019-04-29T02:32:58.088Z,4.57
2019-04-29T02:33:58.076Z,4.57
2019-04-29T02:34:58.073Z,4.59
2019-04-29T02:35:58.051Z,4.55
2019-04-29T02:36:58.115Z,4.58
2019-04-29T02:37:58.096Z,4.65
2019-04-29T02:38:58.019Z,4.67
2019-04-29T02:39:58.007Z,4.62
2019-04-29T02:40:57.997Z,4.65
2019-04-29T02:41:57.983Z,4.62
2019-04-29T02:42:58.049Z,4.75
2019-04-29T02:43:57.966Z,4.72
2019-04-29T02:44:57.952Z,4.75
2019-04-29T02:45:57.938Z,4.64
2019-04-29T02:46:57.932Z,4.64
2019-04-29T02:47:57.915Z,4.65
2019-04-29T02:48:57.993Z,4.62
2019-04-29T02:49:57.902Z,4.64
2019-04-29T02:50:57.881Z,4.70
2019-04-29T02:51:57.873Z,4.61
2019-04-29T02:52:57.865Z,4.55
2019-04-29T02:53:57.845Z,4.54
2019-04-29T02:54:58.046Z,4.57
2019-04-29T02:55:57.827Z,4.51
2019-04-29T02:56:57.817Z,4.43
2019-04-29T02:57:57.816Z,4.40
2019-04-29T02:58:57.785Z,4.32
2019-04-29T02:59:57.774Z,4.34
2019-04-29T03:00:57.977Z,4.33
2019-04-29T03:01:57.750Z,4.28
2019-04-29T03:02:57.740Z,4.22
2019-04-29T03:03:57.729Z,4.18
2019-04-29T03:04:57.742Z,4.03
2019-04-29T03:05:57.706Z,3.97
2019-04-29T03:06:57.916Z,3.97
2019-04-29T03:07:57.704Z,3.96
2019-04-29T03:08:57.680Z,3.92
2019-04-29T03:09:57.664Z,3.88
2019-04-29T03:10:57.648Z,3.80
2019-04-29T03:12:01.632Z,3.78
2019-04-29T03:12:57.706Z,3.83
2019-04-29T03:13:57.611Z,3.82
2019-04-29T03:14:57.601Z,3.85
2019-04-29T03:15:57.590Z,3.83
2019-04-29T03:16:57.577Z,3.83
2019-04-29T03:17:57.566Z,3.75
2019-04-29T03:18:57.644Z,3.76
2019-04-29T03:19:57.546Z,3.65
2019-04-29T03:20:57.537Z,3.64
2019-04-29T03:21:57.549Z,3.68
2019-04-29T03:22:57.510Z,3.82
2019-04-29T03:23:57.498Z,3.71
2019-04-29T03:24:57.547Z,3.62
2019-04-29T03:25:57.474Z,3.72
2019-04-29T03:26:57.598Z,3.65
2019-04-29T03:27:57.497Z,3.58
2019-04-29T03:28:57.457Z,3.67
2019-04-29T03:29:57.430Z,3.64
2019-04-29T03:30:57.628Z,3.65
2019-04-29T03:31:57.445Z,3.60
2019-04-29T03:32:57.424Z,3.57
2019-04-29T03:33:57.389Z,3.50
2019-04-29T03:34:57.383Z,3.43
2019-04-29T03:35:57.367Z,3.42
2019-04-29T03:36:57.566Z,3.43
2019-04-29T03:37:57.350Z,3.49
2019-04-29T03:38:57.416Z,3.50
2019-04-29T03:39:57.319Z,3.50
2019-04-29T03:40:57.316Z,3.49
2019-04-29T03:41:57.302Z,3.40
2019-04-29T03:42:57.393Z,3.57
2019-04-29T03:43:57.278Z,3.64
2019-04-29T03:44:57.262Z,3.57
2019-04-29T03:45:57.261Z,3.58
2019-04-29T03:46:57.241Z,3.67
2019-04-29T03:47:57.238Z,3.71
2019-04-29T03:48:57.281Z,3.72
2019-04-29T03:49:57.209Z,3.65
2019-04-29T03:50:57.328Z,3.61
2019-04-29T03:51:57.188Z,3.50
2019-04-29T03:52:57.176Z,3.44
2019-04-29T03:53:57.162Z,3.52
2019-04-29T03:54:57.222Z,3.47
2019-04-29T03:55:57.143Z,3.52
2019-04-29T03:56:57.132Z,3.60
2019-04-29T03:57:57.123Z,3.44
2019-04-29T03:58:57.139Z,3.58
2019-04-29T03:59:57.292Z,3.71
2019-04-29T04:00:57.168Z,3.68
2019-04-29T04:01:57.072Z,3.71
2019-04-29T04:02:57.064Z,3.70
2019-04-29T04:03:57.054Z,3.62
2019-04-29T04:04:57.044Z,3.75
2019-04-29T04:05:57.037Z,3.76
2019-04-29T04:06:57.221Z,3.79
2019-04-29T04:07:57.006Z,3.70
2019-04-29T04:09:06.349Z,3.58
2019-04-29T04:09:57.985Z,3.62
2019-04-29T04:10:56.974Z,3.52
2019-04-29T04:11:56.981Z,3.53
2019-04-29T04:12:57.036Z,3.54
2019-04-29T04:13:56.966Z,3.42
2019-04-29T04:14:56.943Z,3.31
2019-04-29T04:15:56.920Z,3.39
2019-04-29T04:16:56.936Z,3.24
2019-04-29T04:17:56.895Z,3.30
2019-04-29T04:18:57.088Z,3.42
2019-04-29T04:19:56.870Z,3.50
2019-04-29T04:20:56.860Z,3.50
2019-04-29T04:21:56.848Z,3.53
2019-04-29T04:22:56.842Z,3.49
2019-04-29T04:23:58.283Z,3.58
2019-04-29T04:24:56.901Z,3.57
2019-04-29T04:25:56.809Z,3.50
2019-04-29T04:26:56.800Z,3.67
2019-04-29T04:27:56.803Z,3.67
2019-04-29T04:28:56.770Z,3.64
2019-04-29T04:29:56.761Z,3.54
2019-04-29T04:30:56.956Z,3.65
2019-04-29T04:31:56.743Z,3.79
2019-04-29T04:32:56.725Z,3.85
2019-04-29T04:33:56.727Z,3.85
2019-04-29T04:34:56.710Z,3.98
2019-04-29T04:35:56.703Z,3.97
2019-04-29T04:37:00.170Z,4.06
2019-04-29T04:37:56.668Z,4.10
2019-04-29T04:38:56.677Z,4.25
2019-04-29T04:39:56.682Z,4.28
2019-04-29T04:40:56.662Z,4.32
2019-04-29T04:41:56.629Z,4.33
2019-04-29T04:42:56.704Z,4.42
2019-04-29T04:43:56.601Z,4.44
2019-04-29T04:44:56.586Z,4.42
2019-04-29T04:45:56.579Z,4.54
2019-04-29T04:46:56.563Z,4.52
2019-04-29T04:47:56.554Z,4.61
2019-04-29T04:48:56.607Z,4.62
2019-04-29T04:49:56.528Z,4.69
2019-04-29T04:50:56.536Z,4.59
2019-04-29T04:51:56.511Z,4.64
2019-04-29T04:52:56.493Z,4.72
2019-04-29T04:53:56.502Z,4.69
2019-04-29T04:54:56.679Z,4.76
2019-04-29T04:55:56.459Z,4.86
2019-04-29T04:56:56.447Z,4.89
2019-04-29T04:57:56.435Z,4.96
2019-04-29T04:58:56.425Z,4.92
2019-04-29T04:59:56.417Z,4.92
2019-04-29T05:00:56.470Z,5.01
2019-04-29T05:01:56.395Z,5.07
2019-04-29T05:02:56.410Z,5.09
2019-04-29T05:03:56.370Z,5.20
2019-04-29T05:04:56.355Z,5.27
2019-04-29T05:05:56.344Z,5.28
2019-04-29T05:06:56.400Z,5.40
2019-04-29T05:07:56.351Z,5.43
2019-04-29T05:08:56.308Z,5.49
2019-04-29T05:09:56.305Z,5.57
2019-04-29T05:10:56.305Z,5.59
2019-04-29T05:11:56.276Z,5.68
2019-04-29T05:12:56.478Z,5.70
2019-04-29T05:13:56.256Z,5.63
2019-04-29T05:14:56.259Z,5.70
2019-04-29T05:15:56.229Z,5.66
2019-04-29T05:16:56.219Z,5.75
2019-04-29T05:17:56.208Z,5.73
2019-04-29T05:18:56.258Z,5.73
2019-04-29T05:19:56.190Z,5.71
2019-04-29T05:20:56.178Z,5.82
2019-04-29T05:21:56.162Z,5.92
2019-04-29T05:22:56.154Z,5.93
2019-04-29T05:23:56.150Z,6.06
2019-04-29T05:24:56.353Z,6.19
2019-04-29T05:25:56.128Z,6.26
2019-04-29T05:26:56.112Z,6.38
2019-04-29T05:27:56.094Z,6.40
2019-04-29T05:28:56.081Z,6.44
2019-04-29T05:29:56.070Z,6.41
2019-04-29T05:30:56.127Z,6.54
2019-04-29T05:31:56.053Z,6.53
2019-04-29T05:32:56.042Z,6.54
2019-04-29T05:33:56.043Z,6.61
2019-04-29T05:34:56.018Z,6.65
2019-04-29T05:35:56.592Z,6.65
2019-04-29T05:36:57.052Z,6.65
2019-04-29T05:37:56.892Z,6.76
2019-04-29T05:38:55.967Z,6.71
2019-04-29T05:39:55.955Z,6.71
2019-04-29T05:40:57.059Z,6.91
2019-04-29T05:41:55.932Z,6.90
2019-04-29T05:42:56.009Z,6.89
2019-04-29T05:43:55.915Z,6.90
2019-04-29T05:44:55.900Z,6.86
2019-04-29T05:45:55.906Z,6.97
2019-04-29T05:46:55.880Z,6.95
2019-04-29T05:47:56.973Z,6.97
2019-04-29T05:48:55.918Z,6.97
2019-04-29T05:49:55.844Z,6.98
2019-04-29T05:50:55.834Z,7.02
2019-04-29T05:51:57.516Z,7.05
2019-04-29T05:52:56.812Z,7.07
2019-04-29T05:53:56.011Z,7.20
2019-04-29T05:54:55.882Z,7.15
2019-04-29T05:55:55.776Z,7.20
2019-04-29T05:56:55.809Z,7.29
2019-04-29T05:58:02.887Z,7.26
2019-04-29T05:58:56.747Z,7.41
2019-04-29T05:59:55.738Z,7.37
2019-04-29T06:00:55.791Z,7.52
2019-04-29T06:01:55.711Z,7.44
2019-04-29T06:02:55.716Z,7.47
2019-04-29T06:03:55.685Z,7.52
2019-04-29T06:04:55.674Z,7.58
2019-04-29T06:05:55.677Z,7.58
2019-04-29T06:06:55.724Z,7.59
2019-04-29T06:07:56.101Z,7.66
2019-04-29T06:08:55.657Z,7.75
2019-04-29T06:09:55.617Z,7.78
2019-04-29T06:10:55.613Z,7.75
2019-04-29T06:11:55.597Z,7.81
2019-04-29T06:12:55.648Z,7.82
2019-04-29T06:13:55.582Z,7.93
2019-04-29T06:14:55.595Z,7.85
2019-04-29T06:15:55.552Z,7.97
2019-04-29T06:16:57.724Z,7.99
2019-04-29T06:17:56.586Z,8.07
2019-04-29T06:19:00.380Z,8.22
2019-04-29T06:19:56.517Z,8.25
2019-04-29T06:21:08.326Z,8.39
2019-04-29T06:21:56.481Z,8.40
2019-04-29T06:22:55.469Z,8.42
2019-04-29T06:23:59.477Z,8.44
2019-04-29T06:24:56.443Z,8.50
2019-04-29T06:25:55.467Z,8.42
2019-04-29T06:26:55.420Z,8.63
2019-04-29T06:27:55.408Z,8.72
2019-04-29T06:28:55.421Z,8.63
2019-04-29T06:29:58.519Z,8.69
2019-04-29T06:30:56.373Z,8.65
2019-04-29T06:31:55.376Z,8.72
2019-04-29T06:32:55.350Z,8.81
2019-04-29T06:33:55.345Z,8.88
2019-04-29T06:34:55.328Z,8.86
2019-04-29T06:35:57.024Z,8.88
2019-04-29T06:36:55.315Z,8.96
2019-04-29T06:37:55.304Z,9.10
2019-04-29T06:38:55.285Z,9.12
2019-04-29T06:39:55.272Z,9.28
2019-04-29T06:40:55.261Z,9.24
2019-04-29T06:41:55.316Z,9.38
2019-04-29T06:42:55.292Z,9.45
2019-04-29T06:43:56.137Z,9.39
2019-04-29T06:44:55.218Z,9.58
2019-04-29T06:45:55.220Z,9.70
2019-04-29T06:46:56.308Z,9.79
2019-04-29T06:47:55.249Z,9.89
2019-04-29T06:49:09.062Z,9.97
2019-04-29T06:49:56.161Z,9.97
2019-04-29T06:50:55.145Z,9.85
2019-04-29T06:51:55.134Z,9.99
2019-04-29T06:52:55.122Z,9.89
2019-04-29T06:53:55.175Z,10.06
2019-04-29T06:54:55.101Z,10.14
2019-04-29T06:55:55.098Z,10.10
2019-04-29T06:56:55.076Z,9.97
2019-04-29T06:57:55.066Z,9.97
2019-04-29T06:58:55.055Z,10.10
2019-04-29T06:59:55.107Z,9.93
2019-04-29T07:00:55.946Z,9.91
2019-04-29T07:01:56.021Z,9.88
2019-04-29T07:02:55.009Z,9.94
2019-04-29T07:03:55.728Z,9.96
2019-04-29T07:04:54.985Z,10.06
2019-04-29T07:05:55.036Z,9.99
2019-04-29T07:06:57.743Z,10.03
2019-04-29T07:07:54.960Z,10.06
2019-04-29T07:08:54.942Z,10.06
2019-04-29T07:09:56.866Z,9.96
2019-04-29T07:10:56.026Z,10.00
2019-04-29T07:12:01.432Z,9.97
2019-04-29T07:12:55.893Z,10.06
2019-04-29T07:13:57.602Z,9.96
2019-04-29T07:14:54.873Z,10.17
2019-04-29T07:15:54.865Z,10.26
2019-04-29T07:16:54.851Z,10.43
2019-04-29T07:17:54.899Z,10.51
2019-04-29T07:18:54.828Z,10.56
2019-04-29T07:19:57.620Z,10.66
2019-04-29T07:20:55.804Z,10.77
2019-04-29T07:21:56.555Z,10.83
2019-04-29T07:22:56.528Z,10.92
2019-04-29T07:23:55.833Z,10.96
2019-04-29T07:24:54.759Z,10.94
2019-04-29T07:25:54.746Z,11.07
2019-04-29T07:26:57.922Z,11.34
2019-04-29T07:27:55.722Z,11.19
2019-04-29T07:28:55.713Z,11.10
2019-04-29T07:29:54.762Z,11.19
2019-04-29T07:31:03.074Z,11.10
2019-04-29T07:31:55.684Z,11.19
2019-04-29T07:32:54.667Z,11.13
2019-04-29T07:33:57.900Z,11.01
2019-04-29T07:34:54.642Z,11.06
2019-04-29T07:35:54.710Z,11.03
2019-04-29T07:36:57.719Z,11.10
2019-04-29T07:37:54.607Z,10.99
2019-04-29T07:38:56.629Z,11.01
2019-04-29T07:39:54.585Z,11.17
2019-04-29T07:40:54.574Z,11.27
2019-04-29T07:41:54.752Z,11.35
2019-04-29T07:42:54.562Z,11.59
2019-04-29T07:43:54.540Z,11.56
2019-04-29T07:44:54.529Z,11.82
2019-04-29T07:45:54.517Z,12.46
2019-04-29T07:46:58.276Z,12.69
2019-04-29T07:47:56.824Z,12.60
2019-04-29T07:49:01.199Z,12.26
2019-04-29T07:49:55.754Z,12.30
2019-04-29T07:50:54.461Z,12.39
2019-04-29T07:51:54.449Z,13.04
2019-04-29T07:52:54.436Z,13.29
2019-04-29T07:53:54.491Z,13.07
2019-04-29T07:54:56.131Z,13.00
2019-04-29T07:55:54.405Z,12.81
2019-04-29T07:56:54.392Z,12.75
2019-04-29T07:57:54.384Z,12.81
2019-04-29T07:58:54.367Z,12.79
2019-04-29T07:59:54.562Z,12.45
2019-04-29T08:00:56.275Z,12.48
2019-04-29T08:01:55.699Z,12.31
2019-04-29T08:02:55.323Z,12.44
2019-04-29T08:03:54.313Z,12.70
2019-04-29T08:04:54.298Z,12.93
2019-04-29T08:05:54.357Z,12.79
2019-04-29T08:06:54.275Z,12.64
2019-04-29T08:07:54.265Z,12.69
2019-04-29T08:08:57.360Z,12.82
2019-04-29T08:09:55.240Z,13.11
2019-04-29T08:10:56.661Z,13.32
2019-04-29T08:11:54.278Z,13.29
2019-04-29T08:12:54.205Z,13.36
2019-04-29T08:13:54.196Z,13.37
2019-04-29T08:14:58.632Z,13.43
2019-04-29T08:15:55.197Z,13.41
2019-04-29T08:16:54.177Z,13.44
2019-04-29T08:18:05.957Z,13.37
2019-04-29T08:18:55.140Z,13.36
2019-04-29T08:19:54.128Z,13.18
2019-04-29T08:20:54.116Z,12.85
2019-04-29T08:21:54.102Z,12.63
2019-04-29T08:22:54.094Z,12.75
2019-04-29T08:23:54.141Z,12.56
2019-04-29T08:24:54.067Z,12.51
2019-04-29T08:25:57.489Z,12.29
2019-04-29T08:26:55.053Z,12.30
2019-04-29T08:27:54.033Z,12.21
2019-04-29T08:29:00.291Z,12.26
2019-04-29T08:29:55.076Z,12.38
2019-04-29T08:30:54.008Z,12.42
2019-04-29T08:31:57.349Z,12.60
2019-04-29T08:32:54.977Z,12.62
2019-04-29T08:33:53.965Z,12.82
2019-04-29T08:34:58.296Z,12.85
2019-04-29T08:35:55.156Z,13.06
2019-04-29T08:36:53.931Z,13.14
2019-04-29T08:37:53.920Z,13.25
2019-04-29T08:38:53.908Z,13.27
2019-04-29T08:40:14.707Z,13.46
2019-04-29T08:40:54.883Z,13.69
2019-04-29T08:41:53.935Z,13.83
2019-04-29T08:42:53.862Z,13.79
2019-04-29T08:43:57.820Z,13.96
2019-04-29T08:44:59.551Z,14.04
2019-04-29T08:45:54.825Z,14.01
2019-04-29T08:46:53.823Z,13.89
2019-04-29T08:47:53.867Z,13.77
2019-04-29T08:48:53.801Z,13.67
2019-04-29T08:49:53.782Z,13.54
2019-04-29T08:50:53.772Z,13.38
2019-04-29T08:51:53.757Z,13.29
2019-04-29T08:52:53.748Z,13.20
2019-04-29T08:53:53.807Z,13.03
2019-04-29T08:54:55.495Z,12.97
2019-04-29T08:55:53.717Z,12.78
2019-04-29T08:57:03.156Z,12.78
2019-04-29T08:57:54.689Z,12.82
2019-04-29T08:58:53.679Z,12.74
2019-04-29T08:59:53.878Z,12.62
2019-04-29T09:00:55.686Z,12.75
2019-04-29T09:01:53.648Z,12.66
2019-04-29T09:02:53.632Z,12.56
2019-04-29T09:03:57.635Z,12.57
2019-04-29T09:04:54.089Z,12.45
2019-04-29T09:06:05.011Z,12.37
2019-04-29T09:06:54.588Z,12.29
2019-04-29T09:07:57.311Z,12.12
2019-04-29T09:08:59.237Z,12.21
2019-04-29T09:09:56.133Z,12.02
2019-04-29T09:10:54.599Z,11.90
2019-04-29T09:11:53.528Z,11.62
2019-04-29T09:12:53.519Z,11.59
2019-04-29T09:13:53.505Z,11.59
2019-04-29T09:14:53.497Z,11.62
2019-04-29T09:15:53.485Z,11.53
2019-04-29T09:16:53.535Z,11.53
2019-04-29T09:17:53.546Z,11.49
2019-04-29T09:18:53.463Z,11.50
2019-04-29T09:19:53.438Z,11.29
2019-04-29T09:20:53.429Z,11.28
2019-04-29T09:21:53.415Z,11.36
2019-04-29T09:22:53.473Z,11.32
2019-04-29T09:23:53.395Z,11.32
2019-04-29T09:24:53.380Z,11.34
2019-04-29T09:26:02.472Z,11.25
2019-04-29T09:26:54.359Z,11.31
2019-04-29T09:27:56.248Z,11.19
2019-04-29T09:28:53.541Z,11.25
2019-04-29T09:29:54.193Z,11.32
2019-04-29T09:30:54.314Z,11.38
2019-04-29T09:31:53.300Z,11.41
2019-04-29T09:32:53.288Z,11.32
2019-04-29T09:34:06.023Z,11.25
2019-04-29T09:34:55.551Z,11.19
2019-04-29T09:35:53.252Z,11.11
2019-04-29T09:36:53.240Z,11.03
2019-04-29T09:37:53.894Z,11.02
2019-04-29T09:38:53.217Z,11.03
2019-04-29T09:39:53.239Z,11.03
2019-04-29T09:40:54.624Z,11.02
2019-04-29T09:41:54.183Z,10.94
2019-04-29T09:42:53.171Z,10.88
2019-04-29T09:43:53.160Z,10.84
2019-04-29T09:44:53.147Z,10.92
2019-04-29T09:45:53.842Z,10.98
2019-04-29T09:46:54.195Z,10.99
2019-04-29T09:47:53.118Z,11.01
2019-04-29T09:48:53.103Z,11.06
2019-04-29T09:49:53.092Z,11.02
2019-04-29T09:50:53.085Z,10.95
2019-04-29T09:51:53.080Z,11.02
2019-04-29T09:52:53.123Z,10.98
2019-04-29T09:53:53.048Z,11.09
2019-04-29T09:54:53.034Z,11.03
2019-04-29T09:55:53.024Z,11.03
2019-04-29T09:56:53.015Z,11.21
2019-04-29T09:57:53.006Z,11.20
2019-04-29T09:58:53.054Z,11.25
2019-04-29T09:59:52.979Z,11.27
2019-04-29T10:00:52.991Z,11.16
2019-04-29T10:01:55.098Z,11.24
2019-04-29T10:02:52.943Z,11.29
2019-04-29T10:03:52.944Z,11.20
2019-04-29T10:04:56.666Z,11.17
2019-04-29T10:05:52.909Z,11.06
2019-04-29T10:06:52.896Z,11.07
2019-04-29T10:07:52.887Z,11.02
2019-04-29T10:08:52.883Z,11.07
2019-04-29T10:09:57.405Z,10.91
2019-04-29T10:10:52.913Z,10.83
2019-04-29T10:11:52.840Z,10.84
2019-04-29T10:12:54.128Z,10.80
2019-04-29T10:13:52.822Z,10.76
2019-04-29T10:14:52.814Z,10.73
2019-04-29T10:15:55.944Z,10.70
2019-04-29T10:16:53.845Z,10.70
2019-04-29T10:17:55.693Z,10.66
2019-04-29T10:18:52.758Z,10.66
2019-04-29T10:19:52.760Z,10.65
2019-04-29T10:20:52.759Z,10.52
2019-04-29T10:21:52.744Z,10.56
2019-04-29T10:22:53.869Z,10.51
2019-04-29T10:23:52.702Z,10.36
2019-04-29T10:24:52.691Z,10.34
2019-04-29T10:25:52.680Z,10.21
2019-04-29T10:26:52.686Z,10.17
2019-04-29T10:27:52.658Z,10.09
2019-04-29T10:28:52.859Z,10.06
2019-04-29T10:29:55.272Z,10.00
2019-04-29T10:30:52.634Z,9.99
2019-04-29T10:31:52.614Z,9.97
2019-04-29T10:32:52.614Z,9.89
2019-04-29T10:33:54.824Z,9.81
2019-04-29T10:34:52.664Z,9.86
2019-04-29T10:35:52.566Z,9.81
2019-04-29T10:36:53.693Z,9.78
2019-04-29T10:37:52.544Z,9.71
2019-04-29T10:38:52.537Z,9.67
2019-04-29T10:39:52.520Z,9.68
2019-04-29T10:40:52.634Z,9.66
2019-04-29T10:41:52.560Z,9.63
2019-04-29T10:42:52.508Z,9.64
2019-04-29T10:43:53.772Z,9.68
2019-04-29T10:44:52.465Z,9.67
2019-04-29T10:45:52.451Z,9.70
2019-04-29T10:46:52.659Z,9.71
2019-04-29T10:47:52.438Z,9.70
2019-04-29T10:48:52.420Z,9.70
2019-04-29T10:49:52.418Z,9.73
2019-04-29T10:50:53.909Z,9.81
2019-04-29T10:51:52.407Z,9.81
2019-04-29T10:52:52.433Z,9.76
2019-04-29T10:53:52.711Z,9.81
2019-04-29T10:54:55.332Z,9.86
2019-04-29T10:55:52.341Z,9.79
2019-04-29T10:56:52.342Z,9.71
2019-04-29T10:57:52.325Z,9.66
2019-04-29T10:58:52.368Z,9.66
2019-04-29T10:59:52.301Z,9.64
2019-04-29T11:00:52.798Z,9.60
2019-04-29T11:02:01.026Z,9.60
2019-04-29T11:02:53.266Z,9.61
2019-04-29T11:03:55.825Z,9.68
2019-04-29T11:04:53.295Z,9.63
2019-04-29T11:06:00.288Z,9.61
2019-04-29T11:06:53.207Z,9.58
2019-04-29T11:07:52.224Z,9.58
2019-04-29T11:08:52.219Z,9.70
2019-04-29T11:09:52.629Z,9.58
2019-04-29T11:11:01.871Z,9.61
2019-04-29T11:11:53.159Z,9.56
2019-04-29T11:12:52.141Z,9.48
2019-04-29T11:13:52.139Z,9.61
2019-04-29T11:14:52.152Z,9.50
2019-04-29T11:15:52.147Z,9.46
2019-04-29T11:16:52.338Z,9.42
2019-04-29T11:17:58.788Z,9.48
2019-04-29T11:18:55.019Z,9.43
2019-04-29T11:19:53.061Z,9.45
2019-04-29T11:20:53.850Z,9.56
2019-04-29T11:21:52.044Z,9.52
2019-04-29T11:22:52.088Z,9.57
2019-04-29T11:23:54.773Z,9.64
2019-04-29T11:24:52.040Z,9.61
2019-04-29T11:25:52.036Z,9.66
2019-04-29T11:26:51.989Z,9.61
2019-04-29T11:27:52.006Z,9.58
2019-04-29T11:28:52.381Z,9.64
2019-04-29T11:29:51.952Z,9.58
2019-04-29T11:30:51.938Z,9.61
2019-04-29T11:31:54.034Z,9.50
2019-04-29T11:32:51.913Z,9.50
2019-04-29T11:33:51.946Z,9.49
2019-04-29T11:34:53.416Z,9.46
2019-04-29T11:35:51.897Z,9.46
2019-04-29T11:36:51.879Z,9.45
2019-04-29T11:37:54.939Z,9.38
2019-04-29T11:38:52.860Z,9.40
2019-04-29T11:39:51.858Z,9.39
2019-04-29T11:40:51.891Z,9.27
2019-04-29T11:41:54.638Z,9.28
2019-04-29T11:42:52.802Z,9.30
2019-04-29T11:43:52.821Z,9.24
2019-04-29T11:44:51.782Z,9.23
2019-04-29T11:45:51.767Z,9.24
2019-04-29T11:46:51.832Z,9.25
2019-04-29T11:47:51.745Z,9.24
2019-04-29T11:48:51.746Z,9.27
2019-04-29T11:49:51.724Z,9.30
2019-04-29T11:50:54.888Z,9.34
2019-04-29T11:52:08.518Z,9.38
2019-04-29T11:52:55.563Z,9.31
2019-04-29T11:53:51.681Z,9.32
2019-04-29T11:54:51.676Z,9.38
2019-04-29T11:55:52.406Z,9.35
2019-04-29T11:56:51.645Z,9.42
2019-04-29T11:57:51.637Z,9.43
2019-04-29T11:58:51.830Z,9.35
2019-04-29T11:59:51.612Z,9.32
2019-04-29T12:00:52.114Z,9.32
2019-04-29T12:01:53.364Z,9.32
2019-04-29T12:02:51.591Z,9.39
2019-04-29T12:03:56.353Z,9.43
2019-04-29T12:04:52.611Z,9.43
2019-04-29T12:05:51.546Z,9.42
2019-04-29T12:06:56.215Z,9.46
2019-04-29T12:07:52.519Z,9.45
2019-04-29T12:08:53.239Z,9.38
2019-04-29T12:09:51.490Z,9.38
2019-04-29T12:11:05.999Z,9.43
2019-04-29T12:11:52.473Z,9.39
2019-04-29T12:12:51.578Z,9.27
2019-04-29T12:13:51.543Z,9.28
2019-04-29T12:14:51.434Z,9.31
2019-04-29T12:15:51.424Z,9.34
2019-04-29T12:16:54.543Z,9.24
2019-04-29T12:17:51.403Z,9.27
2019-04-29T12:18:51.390Z,9.28
2019-04-29T12:19:51.392Z,9.21
2019-04-29T12:20:51.368Z,9.21
2019-04-29T12:21:51.358Z,9.15
2019-04-29T12:22:51.403Z,9.16
2019-04-29T12:23:52.131Z,9.23
2019-04-29T12:24:51.332Z,9.28
2019-04-29T12:25:51.307Z,9.31
2019-04-29T12:26:51.296Z,9.16
2019-04-29T12:28:01.240Z,9.21
2019-04-29T12:28:52.329Z,9.28
2019-04-29T12:29:54.410Z,9.23
2019-04-29T12:30:51.252Z,9.27
2019-04-29T12:31:51.315Z,9.25
2019-04-29T12:32:51.226Z,9.18
2019-04-29T12:33:51.217Z,9.21
2019-04-29T12:34:51.318Z,9.18
2019-04-29T12:35:52.332Z,9.10
2019-04-29T12:36:56.473Z,9.09
2019-04-29T12:37:52.180Z,9.10
2019-04-29T12:38:51.490Z,9.09
2019-04-29T12:39:51.150Z,8.97
2019-04-29T12:40:55.046Z,9.04
2019-04-29T12:41:51.126Z,8.97
2019-04-29T12:42:51.107Z,9.02
2019-04-29T12:43:54.155Z,9.04
2019-04-29T12:44:52.087Z,9.02
2019-04-29T12:45:53.684Z,9.02
2019-04-29T12:46:51.136Z,8.96
2019-04-29T12:47:51.053Z,9.01
2019-04-29T12:48:51.045Z,9.01
2019-04-29T12:49:51.033Z,8.96
2019-04-29T12:50:57.097Z,9.01
2019-04-29T12:51:52.065Z,8.96
2019-04-29T12:52:50.995Z,8.99
2019-04-29T12:53:50.978Z,8.99
2019-04-29T12:54:50.967Z,8.96
2019-04-29T12:55:53.516Z,8.96
2019-04-29T12:56:50.946Z,9.02
2019-04-29T12:57:51.516Z,8.99
2019-04-29T12:58:51.040Z,9.02
2019-04-29T12:59:54.157Z,8.99
2019-04-29T13:01:00.099Z,9.01
2019-04-29T13:01:57.661Z,8.96
2019-04-29T13:02:55.606Z,8.94
2019-04-29T13:03:51.861Z,9.02
2019-04-29T13:04:51.513Z,8.99
2019-04-29T13:05:57.996Z,9.05
2019-04-29T13:06:51.826Z,8.99
2019-04-29T13:07:50.815Z,8.96
2019-04-29T13:08:50.868Z,8.97
2019-04-29T13:09:50.794Z,8.97
2019-04-29T13:10:50.783Z,8.97
2019-04-29T13:11:58.075Z,8.91